sensor_id;sensor_type;location;lat;lon;timestamp;P1;durP1;ratioP1;P2;durP2;ratioP2
22005;SDS011;11167;46.988;15.470;2024-01-30T00:01:11;18.87;;;10.82;;
22005;SDS011;11167;46.988;15.470;2024-01-30T00:03:12;19.12;;;11.33;;
22005;SDS011;11167;46.988;15.470;2024-01-30T00:05:13;17.73;;;11.40;;
22005;SDS011;11167;46.988;15.470;2024-01-30T00:07:15;17.82;;;11.78;;
22005;SDS011;11167;46.988;15.470;2024-01-30T00:09:16;19.23;;;12.15;;
22005;SDS011;11167;46.988;15.470;2024-01-30T00:11:17;19.40;;;11.75;;
22005;SDS011;11167;46.988;15.470;2024-01-30T00:13:18;18.50;;;11.15;;
22005;SDS011;11167;46.988;15.470;2024-01-30T00:15:20;16.95;;;10.85;;
22005;SDS011;11167;46.988;15.470;2024-01-30T00:17:21;16.67;;;10.85;;
22005;SDS011;11167;46.988;15.470;2024-01-30T00:19:22;17.02;;;10.78;;
22005;SDS011;11167;46.988;15.470;2024-01-30T00:21:23;19.02;;;10.88;;
22005;SDS011;11167;46.988;15.470;2024-01-30T00:23:25;19.92;;;12.25;;
22005;SDS011;11167;46.988;15.470;2024-01-30T00:25:26;17.62;;;10.70;;
22005;SDS011;11167;46.988;15.470;2024-01-30T00:27:28;15.93;;;11.05;;
22005;SDS011;11167;46.988;15.470;2024-01-30T00:29:29;16.42;;;11.40;;
22005;SDS011;11167;46.988;15.470;2024-01-30T00:31:32;19.55;;;10.98;;
22005;SDS011;11167;46.988;15.470;2024-01-30T00:33:33;17.17;;;10.63;;
22005;SDS011;11167;46.988;15.470;2024-01-30T00:35:34;17.52;;;10.75;;
22005;SDS011;11167;46.988;15.470;2024-01-30T00:37:35;18.20;;;11.53;;
22005;SDS011;11167;46.988;15.470;2024-01-30T00:39:36;16.85;;;11.08;;
22005;SDS011;11167;46.988;15.470;2024-01-30T00:41:38;16.10;;;10.60;;
22005;SDS011;11167;46.988;15.470;2024-01-30T00:43:39;17.62;;;11.50;;
22005;SDS011;11167;46.988;15.470;2024-01-30T00:45:40;15.83;;;10.20;;
22005;SDS011;11167;46.988;15.470;2024-01-30T00:47:41;17.80;;;11.20;;
22005;SDS011;11167;46.988;15.470;2024-01-30T00:49:42;16.23;;;11.00;;
22005;SDS011;11167;46.988;15.470;2024-01-30T00:51:44;16.67;;;10.53;;
22005;SDS011;11167;46.988;15.470;2024-01-30T00:53:45;15.40;;;10.38;;
22005;SDS011;11167;46.988;15.470;2024-01-30T00:55:46;15.30;;;10.68;;
22005;SDS011;11167;46.988;15.470;2024-01-30T00:57:48;16.62;;;10.72;;
22005;SDS011;11167;46.988;15.470;2024-01-30T00:59:50;16.45;;;10.93;;
22005;SDS011;11167;46.988;15.470;2024-01-30T01:01:51;16.55;;;10.93;;
22005;SDS011;11167;46.988;15.470;2024-01-30T01:03:52;18.10;;;10.65;;
22005;SDS011;11167;46.988;15.470;2024-01-30T01:05:53;18.45;;;10.88;;
22005;SDS011;11167;46.988;15.470;2024-01-30T01:07:54;17.12;;;10.82;;
22005;SDS011;11167;46.988;15.470;2024-01-30T01:09:55;16.15;;;10.48;;
22005;SDS011;11167;46.988;15.470;2024-01-30T01:11:57;16.55;;;10.68;;
22005;SDS011;11167;46.988;15.470;2024-01-30T01:13:58;17.10;;;10.55;;
22005;SDS011;11167;46.988;15.470;2024-01-30T01:15:59;15.95;;;10.80;;
22005;SDS011;11167;46.988;15.470;2024-01-30T01:18:00;16.07;;;10.58;;
22005;SDS011;11167;46.988;15.470;2024-01-30T01:20:02;15.43;;;10.45;;
22005;SDS011;11167;46.988;15.470;2024-01-30T01:24:06;16.93;;;10.98;;
22005;SDS011;11167;46.988;15.470;2024-01-30T01:26:08;16.57;;;11.15;;
22005;SDS011;11167;46.988;15.470;2024-01-30T01:28:10;16.80;;;11.20;;
22005;SDS011;11167;46.988;15.470;2024-01-30T01:30:11;17.20;;;11.40;;
22005;SDS011;11167;46.988;15.470;2024-01-30T01:32:14;18.70;;;12.00;;
22005;SDS011;11167;46.988;15.470;2024-01-30T01:34:16;16.23;;;10.95;;
22005;SDS011;11167;46.988;15.470;2024-01-30T01:36:17;17.07;;;11.43;;
22005;SDS011;11167;46.988;15.470;2024-01-30T01:38:18;17.30;;;11.30;;
22005;SDS011;11167;46.988;15.470;2024-01-30T01:40:20;18.02;;;11.75;;
22005;SDS011;11167;46.988;15.470;2024-01-30T01:42:23;16.27;;;10.70;;
22005;SDS011;11167;46.988;15.470;2024-01-30T01:44:24;18.52;;;11.55;;
22005;SDS011;11167;46.988;15.470;2024-01-30T01:46:29;15.50;;;10.65;;
22005;SDS011;11167;46.988;15.470;2024-01-30T01:48:33;18.30;;;11.43;;
22005;SDS011;11167;46.988;15.470;2024-01-30T01:50:34;16.80;;;10.95;;
22005;SDS011;11167;46.988;15.470;2024-01-30T01:52:37;17.37;;;11.78;;
22005;SDS011;11167;46.988;15.470;2024-01-30T01:54:39;19.00;;;11.45;;
22005;SDS011;11167;46.988;15.470;2024-01-30T01:56:41;19.02;;;11.63;;
22005;SDS011;11167;46.988;15.470;2024-01-30T01:58:45;20.15;;;11.57;;
22005;SDS011;11167;46.988;15.470;2024-01-30T02:00:48;18.17;;;12.33;;
22005;SDS011;11167;46.988;15.470;2024-01-30T02:02:51;17.87;;;11.57;;
22005;SDS011;11167;46.988;15.470;2024-01-30T02:04:55;18.60;;;11.60;;
22005;SDS011;11167;46.988;15.470;2024-01-30T02:06:56;18.40;;;10.72;;
22005;SDS011;11167;46.988;15.470;2024-01-30T02:08:57;17.27;;;11.25;;
22005;SDS011;11167;46.988;15.470;2024-01-30T02:10:58;18.45;;;11.93;;
22005;SDS011;11167;46.988;15.470;2024-01-30T02:13:00;17.75;;;11.33;;
22005;SDS011;11167;46.988;15.470;2024-01-30T02:15:01;17.55;;;11.50;;
22005;SDS011;11167;46.988;15.470;2024-01-30T02:17:03;19.27;;;11.83;;
22005;SDS011;11167;46.988;15.470;2024-01-30T02:19:04;19.30;;;11.75;;
22005;SDS011;11167;46.988;15.470;2024-01-30T02:21:06;16.97;;;11.28;;
22005;SDS011;11167;46.988;15.470;2024-01-30T02:23:07;19.42;;;12.30;;
22005;SDS011;11167;46.988;15.470;2024-01-30T02:25:10;16.55;;;11.55;;
22005;SDS011;11167;46.988;15.470;2024-01-30T02:27:11;17.90;;;11.75;;
22005;SDS011;11167;46.988;15.470;2024-01-30T02:29:13;15.03;;;10.88;;
22005;SDS011;11167;46.988;15.470;2024-01-30T02:31:14;19.35;;;11.65;;
22005;SDS011;11167;46.988;15.470;2024-01-30T02:33:15;19.10;;;11.60;;
22005;SDS011;11167;46.988;15.470;2024-01-30T02:35:16;15.68;;;11.43;;
22005;SDS011;11167;46.988;15.470;2024-01-30T02:37:17;15.58;;;10.85;;
22005;SDS011;11167;46.988;15.470;2024-01-30T02:39:18;15.72;;;10.75;;
22005;SDS011;11167;46.988;15.470;2024-01-30T02:41:20;17.60;;;11.63;;
22005;SDS011;11167;46.988;15.470;2024-01-30T02:43:22;16.77;;;11.63;;
22005;SDS011;11167;46.988;15.470;2024-01-30T02:45:23;19.17;;;11.90;;
22005;SDS011;11167;46.988;15.470;2024-01-30T02:47:24;18.70;;;11.48;;
22005;SDS011;11167;46.988;15.470;2024-01-30T02:49:25;16.97;;;11.75;;
22005;SDS011;11167;46.988;15.470;2024-01-30T02:51:26;17.27;;;11.15;;
22005;SDS011;11167;46.988;15.470;2024-01-30T02:53:28;18.60;;;11.38;;
22005;SDS011;11167;46.988;15.470;2024-01-30T02:55:29;20.68;;;11.28;;
22005;SDS011;11167;46.988;15.470;2024-01-30T02:57:30;17.50;;;11.28;;
22005;SDS011;11167;46.988;15.470;2024-01-30T02:59:31;16.80;;;11.15;;
22005;SDS011;11167;46.988;15.470;2024-01-30T03:01:33;18.55;;;11.90;;
22005;SDS011;11167;46.988;15.470;2024-01-30T03:03:43;16.10;;;11.28;;
22005;SDS011;11167;46.988;15.470;2024-01-30T03:05:44;16.82;;;10.88;;
22005;SDS011;11167;46.988;15.470;2024-01-30T03:07:45;19.25;;;12.05;;
22005;SDS011;11167;46.988;15.470;2024-01-30T03:09:46;17.92;;;11.45;;
22005;SDS011;11167;46.988;15.470;2024-01-30T03:11:48;15.60;;;11.48;;
22005;SDS011;11167;46.988;15.470;2024-01-30T03:13:50;18.02;;;11.08;;
22005;SDS011;11167;46.988;15.470;2024-01-30T03:15:51;19.65;;;10.72;;
22005;SDS011;11167;46.988;15.470;2024-01-30T03:17:53;17.82;;;11.30;;
22005;SDS011;11167;46.988;15.470;2024-01-30T03:19:54;19.95;;;12.53;;
22005;SDS011;11167;46.988;15.470;2024-01-30T03:21:55;16.55;;;11.38;;
22005;SDS011;11167;46.988;15.470;2024-01-30T03:23:56;16.87;;;11.40;;
22005;SDS011;11167;46.988;15.470;2024-01-30T03:25:58;17.80;;;11.33;;
22005;SDS011;11167;46.988;15.470;2024-01-30T03:27:59;16.52;;;11.33;;
22005;SDS011;11167;46.988;15.470;2024-01-30T03:30:00;18.77;;;11.35;;
22005;SDS011;11167;46.988;15.470;2024-01-30T03:32:01;18.10;;;11.15;;
22005;SDS011;11167;46.988;15.470;2024-01-30T03:34:04;14.75;;;10.58;;
22005;SDS011;11167;46.988;15.470;2024-01-30T03:36:06;17.75;;;11.35;;
22005;SDS011;11167;46.988;15.470;2024-01-30T03:38:07;17.15;;;12.15;;
22005;SDS011;11167;46.988;15.470;2024-01-30T03:40:08;18.17;;;11.90;;
22005;SDS011;11167;46.988;15.470;2024-01-30T03:42:10;17.80;;;11.80;;
22005;SDS011;11167;46.988;15.470;2024-01-30T03:44:11;18.07;;;11.45;;
22005;SDS011;11167;46.988;15.470;2024-01-30T03:46:13;19.73;;;12.10;;
22005;SDS011;11167;46.988;15.470;2024-01-30T03:48:14;19.00;;;12.10;;
22005;SDS011;11167;46.988;15.470;2024-01-30T03:50:15;18.40;;;12.30;;
22005;SDS011;11167;46.988;15.470;2024-01-30T03:52:16;17.70;;;12.28;;
22005;SDS011;11167;46.988;15.470;2024-01-30T03:54:18;19.85;;;12.45;;
22005;SDS011;11167;46.988;15.470;2024-01-30T03:56:19;19.00;;;11.97;;
22005;SDS011;11167;46.988;15.470;2024-01-30T03:58:20;20.68;;;12.80;;
22005;SDS011;11167;46.988;15.470;2024-01-30T04:00:21;19.48;;;12.70;;
22005;SDS011;11167;46.988;15.470;2024-01-30T04:02:22;22.20;;;12.90;;
22005;SDS011;11167;46.988;15.470;2024-01-30T04:04:23;20.80;;;13.08;;
22005;SDS011;11167;46.988;15.470;2024-01-30T04:06:25;19.75;;;13.65;;
22005;SDS011;11167;46.988;15.470;2024-01-30T04:08:27;17.98;;;12.60;;
22005;SDS011;11167;46.988;15.470;2024-01-30T04:10:28;19.73;;;12.93;;
22005;SDS011;11167;46.988;15.470;2024-01-30T04:12:29;18.42;;;12.95;;
22005;SDS011;11167;46.988;15.470;2024-01-30T04:14:30;20.02;;;12.60;;
22005;SDS011;11167;46.988;15.470;2024-01-30T04:16:32;20.40;;;13.80;;
22005;SDS011;11167;46.988;15.470;2024-01-30T04:18:33;22.00;;;13.00;;
22005;SDS011;11167;46.988;15.470;2024-01-30T04:20:34;22.20;;;12.70;;
22005;SDS011;11167;46.988;15.470;2024-01-30T04:22:35;20.25;;;13.20;;
22005;SDS011;11167;46.988;15.470;2024-01-30T04:24:37;19.90;;;13.15;;
22005;SDS011;11167;46.988;15.470;2024-01-30T04:26:39;19.67;;;12.60;;
22005;SDS011;11167;46.988;15.470;2024-01-30T04:28:45;20.25;;;12.75;;
22005;SDS011;11167;46.988;15.470;2024-01-30T04:30:47;17.73;;;12.75;;
22005;SDS011;11167;46.988;15.470;2024-01-30T04:32:48;20.97;;;12.75;;
22005;SDS011;11167;46.988;15.470;2024-01-30T04:34:49;23.00;;;13.50;;
22005;SDS011;11167;46.988;15.470;2024-01-30T04:36:50;18.73;;;12.63;;
22005;SDS011;11167;46.988;15.470;2024-01-30T04:38:51;18.35;;;12.85;;
22005;SDS011;11167;46.988;15.470;2024-01-30T04:40:53;20.50;;;13.43;;
22005;SDS011;11167;46.988;15.470;2024-01-30T04:42:54;21.27;;;13.00;;
22005;SDS011;11167;46.988;15.470;2024-01-30T04:44:55;17.90;;;12.33;;
22005;SDS011;11167;46.988;15.470;2024-01-30T04:46:56;21.70;;;13.45;;
22005;SDS011;11167;46.988;15.470;2024-01-30T04:48:59;20.10;;;13.38;;
22005;SDS011;11167;46.988;15.470;2024-01-30T04:51:00;19.10;;;12.90;;
22005;SDS011;11167;46.988;15.470;2024-01-30T04:53:03;22.77;;;13.93;;
22005;SDS011;11167;46.988;15.470;2024-01-30T04:55:05;19.30;;;13.22;;
22005;SDS011;11167;46.988;15.470;2024-01-30T04:57:07;21.15;;;13.25;;
22005;SDS011;11167;46.988;15.470;2024-01-30T04:59:11;21.57;;;12.80;;
22005;SDS011;11167;46.988;15.470;2024-01-30T05:01:16;21.77;;;13.15;;
22005;SDS011;11167;46.988;15.470;2024-01-30T05:03:18;20.65;;;13.08;;
22005;SDS011;11167;46.988;15.470;2024-01-30T05:05:20;22.27;;;12.98;;
22005;SDS011;11167;46.988;15.470;2024-01-30T05:07:22;19.32;;;12.85;;
22005;SDS011;11167;46.988;15.470;2024-01-30T05:09:23;22.75;;;13.22;;
22005;SDS011;11167;46.988;15.470;2024-01-30T05:11:24;21.40;;;13.50;;
22005;SDS011;11167;46.988;15.470;2024-01-30T05:13:25;18.98;;;12.55;;
22005;SDS011;11167;46.988;15.470;2024-01-30T05:15:27;21.00;;;13.05;;
22005;SDS011;11167;46.988;15.470;2024-01-30T05:17:28;21.35;;;13.70;;
22005;SDS011;11167;46.988;15.470;2024-01-30T05:19:29;22.02;;;13.40;;
22005;SDS011;11167;46.988;15.470;2024-01-30T05:21:30;17.85;;;13.22;;
22005;SDS011;11167;46.988;15.470;2024-01-30T05:23:31;22.42;;;13.18;;
22005;SDS011;11167;46.988;15.470;2024-01-30T05:25:32;20.45;;;12.93;;
22005;SDS011;11167;46.988;15.470;2024-01-30T05:27:35;19.42;;;13.18;;
22005;SDS011;11167;46.988;15.470;2024-01-30T05:29:36;20.85;;;13.40;;
22005;SDS011;11167;46.988;15.470;2024-01-30T05:31:37;22.45;;;14.15;;
22005;SDS011;11167;46.988;15.470;2024-01-30T05:33:38;19.15;;;13.43;;
22005;SDS011;11167;46.988;15.470;2024-01-30T05:35:40;23.32;;;13.95;;
22005;SDS011;11167;46.988;15.470;2024-01-30T05:37:41;22.95;;;13.80;;
22005;SDS011;11167;46.988;15.470;2024-01-30T05:39:43;22.82;;;14.53;;
22005;SDS011;11167;46.988;15.470;2024-01-30T05:41:44;20.48;;;13.40;;
22005;SDS011;11167;46.988;15.470;2024-01-30T05:43:45;21.45;;;13.55;;
22005;SDS011;11167;46.988;15.470;2024-01-30T05:45:46;21.75;;;13.50;;
22005;SDS011;11167;46.988;15.470;2024-01-30T05:47:47;22.22;;;13.90;;
22005;SDS011;11167;46.988;15.470;2024-01-30T05:49:49;20.80;;;13.55;;
22005;SDS011;11167;46.988;15.470;2024-01-30T05:51:50;20.12;;;13.10;;
22005;SDS011;11167;46.988;15.470;2024-01-30T05:53:51;21.23;;;13.55;;
22005;SDS011;11167;46.988;15.470;2024-01-30T05:55:52;22.45;;;13.95;;
22005;SDS011;11167;46.988;15.470;2024-01-30T05:57:53;21.17;;;13.85;;
22005;SDS011;11167;46.988;15.470;2024-01-30T05:59:55;23.45;;;13.43;;
22005;SDS011;11167;46.988;15.470;2024-01-30T06:01:56;22.55;;;14.10;;
22005;SDS011;11167;46.988;15.470;2024-01-30T06:03:57;21.35;;;13.93;;
22005;SDS011;11167;46.988;15.470;2024-01-30T06:05:58;21.75;;;13.58;;
22005;SDS011;11167;46.988;15.470;2024-01-30T06:08:00;20.95;;;13.55;;
22005;SDS011;11167;46.988;15.470;2024-01-30T06:10:03;19.75;;;13.22;;
22005;SDS011;11167;46.988;15.470;2024-01-30T06:12:05;18.90;;;12.80;;
22005;SDS011;11167;46.988;15.470;2024-01-30T06:14:06;20.90;;;13.90;;
22005;SDS011;11167;46.988;15.470;2024-01-30T06:16:11;21.62;;;13.90;;
22005;SDS011;11167;46.988;15.470;2024-01-30T06:18:12;20.77;;;13.10;;
22005;SDS011;11167;46.988;15.470;2024-01-30T06:20:13;22.50;;;14.35;;
22005;SDS011;11167;46.988;15.470;2024-01-30T06:22:15;22.95;;;14.78;;
22005;SDS011;11167;46.988;15.470;2024-01-30T06:24:17;27.82;;;16.82;;
22005;SDS011;11167;46.988;15.470;2024-01-30T06:26:18;28.87;;;17.55;;
22005;SDS011;11167;46.988;15.470;2024-01-30T06:28:19;29.52;;;17.85;;
22005;SDS011;11167;46.988;15.470;2024-01-30T06:30:21;27.77;;;18.35;;
22005;SDS011;11167;46.988;15.470;2024-01-30T06:32:22;25.97;;;17.32;;
22005;SDS011;11167;46.988;15.470;2024-01-30T06:34:23;26.60;;;17.85;;
22005;SDS011;11167;46.988;15.470;2024-01-30T06:36:24;25.70;;;16.73;;
22005;SDS011;11167;46.988;15.470;2024-01-30T06:38:26;22.80;;;15.78;;
22005;SDS011;11167;46.988;15.470;2024-01-30T06:40:27;25.10;;;17.07;;
22005;SDS011;11167;46.988;15.470;2024-01-30T06:42:28;25.08;;;16.42;;
22005;SDS011;11167;46.988;15.470;2024-01-30T06:44:29;25.72;;;15.45;;
22005;SDS011;11167;46.988;15.470;2024-01-30T06:46:30;23.73;;;14.80;;
22005;SDS011;11167;46.988;15.470;2024-01-30T06:48:32;25.68;;;16.37;;
22005;SDS011;11167;46.988;15.470;2024-01-30T06:50:33;26.02;;;16.37;;
22005;SDS011;11167;46.988;15.470;2024-01-30T06:52:34;21.97;;;14.93;;
22005;SDS011;11167;46.988;15.470;2024-01-30T06:54:36;23.80;;;15.32;;
22005;SDS011;11167;46.988;15.470;2024-01-30T06:56:37;21.07;;;14.58;;
22005;SDS011;11167;46.988;15.470;2024-01-30T06:58:39;23.42;;;14.87;;
22005;SDS011;11167;46.988;15.470;2024-01-30T07:00:40;21.15;;;14.68;;
22005;SDS011;11167;46.988;15.470;2024-01-30T07:02:42;22.22;;;14.23;;
22005;SDS011;11167;46.988;15.470;2024-01-30T07:04:43;23.92;;;14.63;;
22005;SDS011;11167;46.988;15.470;2024-01-30T07:06:44;25.08;;;14.95;;
22005;SDS011;11167;46.988;15.470;2024-01-30T07:08:46;22.85;;;14.43;;
22005;SDS011;11167;46.988;15.470;2024-01-30T07:10:47;24.65;;;14.87;;
22005;SDS011;11167;46.988;15.470;2024-01-30T07:12:48;21.40;;;14.33;;
22005;SDS011;11167;46.988;15.470;2024-01-30T07:14:49;20.50;;;14.07;;
22005;SDS011;11167;46.988;15.470;2024-01-30T07:16:51;23.40;;;14.65;;
22005;SDS011;11167;46.988;15.470;2024-01-30T07:18:52;23.73;;;14.53;;
22005;SDS011;11167;46.988;15.470;2024-01-30T07:20:53;22.00;;;14.00;;
22005;SDS011;11167;46.988;15.470;2024-01-30T07:22:54;23.30;;;14.03;;
22005;SDS011;11167;46.988;15.470;2024-01-30T07:24:55;24.92;;;14.87;;
22005;SDS011;11167;46.988;15.470;2024-01-30T07:26:57;23.70;;;14.68;;
22005;SDS011;11167;46.988;15.470;2024-01-30T07:28:59;25.23;;;14.95;;
22005;SDS011;11167;46.988;15.470;2024-01-30T07:31:00;23.60;;;14.70;;
22005;SDS011;11167;46.988;15.470;2024-01-30T07:33:02;22.25;;;13.98;;
22005;SDS011;11167;46.988;15.470;2024-01-30T07:35:03;24.25;;;15.43;;
22005;SDS011;11167;46.988;15.470;2024-01-30T07:37:05;24.70;;;14.10;;
22005;SDS011;11167;46.988;15.470;2024-01-30T07:39:08;24.40;;;15.25;;
22005;SDS011;11167;46.988;15.470;2024-01-30T07:41:10;25.25;;;15.63;;
22005;SDS011;11167;46.988;15.470;2024-01-30T07:43:11;20.92;;;14.00;;
22005;SDS011;11167;46.988;15.470;2024-01-30T07:45:13;21.75;;;14.25;;
22005;SDS011;11167;46.988;15.470;2024-01-30T07:47:14;24.25;;;14.80;;
22005;SDS011;11167;46.988;15.470;2024-01-30T07:49:15;24.23;;;14.90;;
22005;SDS011;11167;46.988;15.470;2024-01-30T07:51:16;25.35;;;14.50;;
22005;SDS011;11167;46.988;15.470;2024-01-30T07:53:17;22.40;;;13.80;;
22005;SDS011;11167;46.988;15.470;2024-01-30T07:55:19;21.55;;;14.07;;
22005;SDS011;11167;46.988;15.470;2024-01-30T07:57:21;21.65;;;13.93;;
22005;SDS011;11167;46.988;15.470;2024-01-30T07:59:22;25.40;;;14.65;;
22005;SDS011;11167;46.988;15.470;2024-01-30T08:01:26;22.93;;;13.32;;
22005;SDS011;11167;46.988;15.470;2024-01-30T08:03:28;23.70;;;13.83;;
22005;SDS011;11167;46.988;15.470;2024-01-30T08:05:29;21.87;;;13.53;;
22005;SDS011;11167;46.988;15.470;2024-01-30T08:07:30;22.73;;;13.30;;
22005;SDS011;11167;46.988;15.470;2024-01-30T08:09:31;18.77;;;13.03;;
22005;SDS011;11167;46.988;15.470;2024-01-30T08:11:33;21.07;;;12.93;;
22005;SDS011;11167;46.988;15.470;2024-01-30T08:13:34;20.88;;;13.30;;
22005;SDS011;11167;46.988;15.470;2024-01-30T08:15:35;20.77;;;12.88;;
22005;SDS011;11167;46.988;15.470;2024-01-30T08:17:36;20.85;;;12.85;;
22005;SDS011;11167;46.988;15.470;2024-01-30T08:19:37;19.45;;;12.98;;
22005;SDS011;11167;46.988;15.470;2024-01-30T08:21:39;24.35;;;14.13;;
22005;SDS011;11167;46.988;15.470;2024-01-30T08:23:40;22.93;;;14.45;;
22005;SDS011;11167;46.988;15.470;2024-01-30T08:25:41;24.23;;;15.78;;
22005;SDS011;11167;46.988;15.470;2024-01-30T08:27:42;30.15;;;17.37;;
22005;SDS011;11167;46.988;15.470;2024-01-30T08:29:45;26.12;;;17.23;;
22005;SDS011;11167;46.988;15.470;2024-01-30T08:31:46;25.30;;;17.15;;
22005;SDS011;11167;46.988;15.470;2024-01-30T08:33:47;26.80;;;16.77;;
22005;SDS011;11167;46.988;15.470;2024-01-30T08:35:48;23.10;;;16.67;;
22005;SDS011;11167;46.988;15.470;2024-01-30T08:37:50;27.58;;;16.07;;
22005;SDS011;11167;46.988;15.470;2024-01-30T08:39:51;25.00;;;15.32;;
22005;SDS011;11167;46.988;15.470;2024-01-30T08:41:53;27.25;;;15.83;;
22005;SDS011;11167;46.988;15.470;2024-01-30T08:43:54;21.65;;;14.13;;
22005;SDS011;11167;46.988;15.470;2024-01-30T08:45:56;21.97;;;14.10;;
22005;SDS011;11167;46.988;15.470;2024-01-30T08:48:01;21.42;;;13.75;;
22005;SDS011;11167;46.988;15.470;2024-01-30T08:50:02;19.90;;;13.48;;
22005;SDS011;11167;46.988;15.470;2024-01-30T08:52:04;22.77;;;13.83;;
22005;SDS011;11167;46.988;15.470;2024-01-30T08:54:05;19.30;;;13.08;;
22005;SDS011;11167;46.988;15.470;2024-01-30T08:56:07;20.77;;;13.32;;
22005;SDS011;11167;46.988;15.470;2024-01-30T08:58:08;17.85;;;12.58;;
22005;SDS011;11167;46.988;15.470;2024-01-30T09:00:10;20.27;;;13.20;;
22005;SDS011;11167;46.988;15.470;2024-01-30T09:02:13;19.40;;;11.88;;
22005;SDS011;11167;46.988;15.470;2024-01-30T09:04:16;18.50;;;12.65;;
22005;SDS011;11167;46.988;15.470;2024-01-30T09:06:17;19.27;;;12.00;;
22005;SDS011;11167;46.988;15.470;2024-01-30T09:08:18;16.77;;;11.48;;
22005;SDS011;11167;46.988;15.470;2024-01-30T09:10:20;17.85;;;11.83;;
22005;SDS011;11167;46.988;15.470;2024-01-30T09:12:21;16.05;;;11.10;;
22005;SDS011;11167;46.988;15.470;2024-01-30T09:14:22;21.82;;;12.70;;
22005;SDS011;11167;46.988;15.470;2024-01-30T09:16:23;17.25;;;11.43;;
22005;SDS011;11167;46.988;15.470;2024-01-30T09:18:24;16.05;;;11.15;;
22005;SDS011;11167;46.988;15.470;2024-01-30T09:20:26;16.97;;;10.85;;
22005;SDS011;11167;46.988;15.470;2024-01-30T09:22:28;17.07;;;11.00;;
22005;SDS011;11167;46.988;15.470;2024-01-30T09:24:29;15.30;;;10.53;;
22005;SDS011;11167;46.988;15.470;2024-01-30T09:26:30;18.30;;;10.63;;
22005;SDS011;11167;46.988;15.470;2024-01-30T09:28:31;16.80;;;10.20;;
22005;SDS011;11167;46.988;15.470;2024-01-30T09:30:33;13.58;;;9.60;;
22005;SDS011;11167;46.988;15.470;2024-01-30T09:32:34;15.23;;;10.40;;
22005;SDS011;11167;46.988;15.470;2024-01-30T09:34:35;15.45;;;9.50;;
22005;SDS011;11167;46.988;15.470;2024-01-30T09:36:36;14.90;;;9.75;;
22005;SDS011;11167;46.988;15.470;2024-01-30T09:38:38;13.95;;;9.83;;
22005;SDS011;11167;46.988;15.470;2024-01-30T09:40:39;14.93;;;10.38;;
22005;SDS011;11167;46.988;15.470;2024-01-30T09:42:40;15.45;;;9.35;;
22005;SDS011;11167;46.988;15.470;2024-01-30T09:44:44;13.10;;;9.30;;
22005;SDS011;11167;46.988;15.470;2024-01-30T09:46:47;14.10;;;9.40;;
22005;SDS011;11167;46.988;15.470;2024-01-30T09:48:50;13.45;;;9.03;;
22005;SDS011;11167;46.988;15.470;2024-01-30T09:50:52;13.18;;;8.75;;
22005;SDS011;11167;46.988;15.470;2024-01-30T09:52:54;13.40;;;9.05;;
22005;SDS011;11167;46.988;15.470;2024-01-30T09:54:56;13.88;;;8.43;;
22005;SDS011;11167;46.988;15.470;2024-01-30T09:57:01;12.63;;;8.78;;
22005;SDS011;11167;46.988;15.470;2024-01-30T09:59:02;13.38;;;8.90;;
22005;SDS011;11167;46.988;15.470;2024-01-30T10:01:04;14.50;;;8.90;;
22005;SDS011;11167;46.988;15.470;2024-01-30T10:03:05;15.03;;;9.58;;
22005;SDS011;11167;46.988;15.470;2024-01-30T10:05:07;16.95;;;9.80;;
22005;SDS011;11167;46.988;15.470;2024-01-30T10:07:09;16.62;;;10.13;;
22005;SDS011;11167;46.988;15.470;2024-01-30T10:09:13;14.78;;;9.48;;
22005;SDS011;11167;46.988;15.470;2024-01-30T10:11:14;16.10;;;9.65;;
22005;SDS011;11167;46.988;15.470;2024-01-30T10:13:15;15.13;;;9.53;;
22005;SDS011;11167;46.988;15.470;2024-01-30T10:15:18;16.10;;;9.38;;
22005;SDS011;11167;46.988;15.470;2024-01-30T10:17:24;16.20;;;9.55;;
22005;SDS011;11167;46.988;15.470;2024-01-30T10:19:26;14.80;;;9.13;;
22005;SDS011;11167;46.988;15.470;2024-01-30T10:21:27;14.45;;;9.73;;
22005;SDS011;11167;46.988;15.470;2024-01-30T10:23:28;13.55;;;8.85;;
22005;SDS011;11167;46.988;15.470;2024-01-30T10:25:32;13.50;;;8.95;;
22005;SDS011;11167;46.988;15.470;2024-01-30T10:27:33;11.93;;;8.23;;
22005;SDS011;11167;46.988;15.470;2024-01-30T10:29:34;13.38;;;8.55;;
22005;SDS011;11167;46.988;15.470;2024-01-30T10:31:37;12.55;;;7.42;;
22005;SDS011;11167;46.988;15.470;2024-01-30T10:33:39;11.95;;;8.20;;
22005;SDS011;11167;46.988;15.470;2024-01-30T10:35:40;14.20;;;8.43;;
22005;SDS011;11167;46.988;15.470;2024-01-30T10:37:44;14.75;;;8.30;;
22005;SDS011;11167;46.988;15.470;2024-01-30T10:39:49;10.50;;;7.65;;
22005;SDS011;11167;46.988;15.470;2024-01-30T10:41:54;10.82;;;7.58;;
22005;SDS011;11167;46.988;15.470;2024-01-30T10:44:15;13.55;;;7.83;;
22005;SDS011;11167;46.988;15.470;2024-01-30T10:46:19;13.03;;;8.05;;
22005;SDS011;11167;46.988;15.470;2024-01-30T10:48:22;13.13;;;8.65;;
22005;SDS011;11167;46.988;15.470;2024-01-30T10:50:27;12.58;;;8.65;;
22005;SDS011;11167;46.988;15.470;2024-01-30T10:52:29;14.05;;;8.40;;
22005;SDS011;11167;46.988;15.470;2024-01-30T10:54:32;13.75;;;8.30;;
22005;SDS011;11167;46.988;15.470;2024-01-30T10:56:36;12.50;;;8.70;;
22005;SDS011;11167;46.988;15.470;2024-01-30T10:58:37;13.72;;;8.48;;
22005;SDS011;11167;46.988;15.470;2024-01-30T11:00:38;14.15;;;8.88;;
22005;SDS011;11167;46.988;15.470;2024-01-30T11:02:40;15.35;;;8.70;;
22005;SDS011;11167;46.988;15.470;2024-01-30T11:04:45;11.93;;;7.75;;
22005;SDS011;11167;46.988;15.470;2024-01-30T11:06:46;12.53;;;7.45;;
22005;SDS011;11167;46.988;15.470;2024-01-30T11:09:02;12.28;;;7.78;;
22005;SDS011;11167;46.988;15.470;2024-01-30T11:11:07;12.50;;;7.70;;
22005;SDS011;11167;46.988;15.470;2024-01-30T11:13:13;12.03;;;7.58;;
22005;SDS011;11167;46.988;15.470;2024-01-30T11:15:18;13.50;;;7.40;;
22005;SDS011;11167;46.988;15.470;2024-01-30T11:17:17;12.60;;;6.97;;
22005;SDS011;11167;46.988;15.470;2024-01-30T11:19:22;10.72;;;7.00;;
22005;SDS011;11167;46.988;15.470;2024-01-30T11:21:26;11.85;;;7.20;;
22005;SDS011;11167;46.988;15.470;2024-01-30T11:23:28;9.70;;;6.35;;
22005;SDS011;11167;46.988;15.470;2024-01-30T11:25:29;11.68;;;6.65;;
22005;SDS011;11167;46.988;15.470;2024-01-30T11:27:32;8.20;;;5.80;;
22005;SDS011;11167;46.988;15.470;2024-01-30T11:29:34;9.53;;;6.35;;
22005;SDS011;11167;46.988;15.470;2024-01-30T11:31:36;9.63;;;5.60;;
22005;SDS011;11167;46.988;15.470;2024-01-30T11:33:37;9.73;;;6.03;;
22005;SDS011;11167;46.988;15.470;2024-01-30T11:35:39;8.88;;;5.87;;
22005;SDS011;11167;46.988;15.470;2024-01-30T11:37:41;9.90;;;5.80;;
22005;SDS011;11167;46.988;15.470;2024-01-30T11:39:45;8.65;;;5.17;;
22005;SDS011;11167;46.988;15.470;2024-01-30T11:41:47;8.13;;;5.42;;
22005;SDS011;11167;46.988;15.470;2024-01-30T11:43:52;9.88;;;6.05;;
22005;SDS011;11167;46.988;15.470;2024-01-30T11:45:54;9.65;;;5.70;;